YWLM/NTL METAR and TAF weather

Enter ICAO airport designator
Station Type Date Time Source
YWLM METAR 2022/12/10 02:30 UTC NOAA

YWLM 100230Z AUTO 12009KT 9999 // BKN034 OVC039 20/11 Q1017


Station Type Date Time Source
YWLM Decoded METAR 2022/12/10 02:30 UTC NOAA

Station name not available
Dec 09, 2022 - 09:30 PM EST / 2022.12.10 0230 UTC
Wind: from the ESE (120 degrees) at 10 MPH (9 KT):0
Visibility: greater than 7 mile(s):0
Sky conditions: overcast
Temperature: 68 F (20 C)
Dew Point: 51 F (11 C)
Relative Humidity: 56%
Pressure (altimeter): 30.03 in. Hg (1017 hPa)
ob: YWLM 100230Z AUTO 12009KT 9999 // BKN034 OVC039 20/11 Q1017
cycle: 2

Station Type Date Time Source
YWLM TAF 2022/12/09 18:36 UTC NOAA

TAF YWLM 091703Z 0918/1018 14008KT 9999 BKN040
FM092300 13012KT 9999 SCT040 BKN050
FM100800 06006KT 9999 FEW025

Example: see airport list